Chicopee River @ Indian Orchard, Ma

Chicopee River at Indian Orchard
 Total Drainage Area: 688 sq. miles 
 Drainage Area Controlled by Corps Dams: 63 sq. miles (9%) 
 Warning Flow/Stage: 6,520 cfs / 10.0 feet 
 Flood Flow/Stage: 10,220 cfs / 12.0 feet 
Date Time
(Eastern)
Stage
(ft)
Flow
(cfs)
CSM
(cfs / sq. mi.)
Jan-31 03:30 pm 6.63 2,155 3.1
Jan-31 02:30 pm 6.63 2,155 3.1
Jan-31 01:30 pm 6.62 2,146 3.1
Jan-31 12:30 pm 6.63 2,155 3.1
Jan-31 11:30 am 6.63 2,155 3.1
Jan-31 10:30 am 6.63 2,155 3.1
Jan-31 09:30 am 6.63 2,155 3.1
Jan-31 08:30 am 6.63 2,155 3.1
Jan-31 07:30 am 6.65 2,174 3.2
Jan-31 06:30 am 6.65 2,174 3.2
Jan-31 05:30 am 6.65 2,174 3.2
Jan-31 04:30 am 6.66 2,184 3.2
Jan-31 03:30 am 6.65 2,174 3.2
Jan-31 02:30 am 6.65 2,174 3.2
Jan-31 01:30 am 6.67 2,193 3.2
Jan-31 12:30 am 6.66 2,184 3.2
Jan-30 11:30 pm 6.67 2,193 3.2
Jan-30 10:30 pm 6.66 2,184 3.2
Jan-30 09:30 pm 6.66 2,184 3.2
Jan-30 08:30 pm 6.66 2,184 3.2
Jan-30 07:30 pm 6.66 2,184 3.2
Jan-30 06:30 pm 6.65 2,174 3.2
Jan-30 05:30 pm 6.65 2,174 3.2
Jan-30 04:30 pm 6.64 2,165 3.2
Jan-30 03:30 pm 6.66 2,184 3.2
Report Generated January 31, 2023 09:13 pm